createdAt,value
2023-05-03T00:00:55.227Z,87.00
2023-05-03T00:07:17.943Z,87.10
2023-05-03T00:10:01.084Z,87.10
2023-05-03T00:12:51.911Z,87.20
2023-05-03T00:19:31.405Z,87.10
2023-05-03T00:29:43.810Z,87.20
2023-05-03T00:56:01.895Z,87.50
2023-05-03T00:58:31.416Z,87.40
2023-05-03T01:01:06.776Z,87.40
2023-05-03T01:03:40.446Z,87.50
2023-05-03T01:06:07.770Z,87.50
2023-05-03T01:09:04.144Z,87.40
2023-05-03T01:11:48.064Z,87.50
2023-05-03T01:14:29.930Z,87.50
2023-05-03T01:17:23.361Z,87.60
2023-05-03T01:22:59.785Z,87.60
2023-05-03T01:25:35.894Z,87.60
2023-05-03T01:28:14.308Z,87.50
2023-05-03T01:33:44.500Z,87.50
2023-05-03T01:36:35.757Z,87.50
2023-05-03T01:39:18.174Z,87.50
2023-05-03T01:41:55.086Z,87.60
2023-05-03T01:45:28.029Z,87.50
2023-05-03T01:47:59.954Z,87.60
2023-05-03T01:53:14.728Z,87.40
2023-05-03T01:55:54.883Z,87.40
2023-05-03T01:58:29.017Z,87.60
2023-05-03T02:01:36.022Z,87.60
2023-05-03T02:04:11.453Z,87.60
2023-05-03T02:10:03.518Z,87.70
2023-05-03T02:12:34.053Z,87.70
2023-05-03T02:15:31.851Z,87.70
2023-05-03T02:18:10.780Z,87.70
2023-05-03T02:21:17.537Z,87.70
2023-05-03T02:23:54.046Z,87.80
2023-05-03T02:26:31.966Z,87.70
2023-05-03T02:29:08.932Z,87.80
2023-05-03T02:31:43.772Z,87.80
2023-05-03T02:34:22.239Z,87.70
2023-05-03T02:36:53.537Z,87.80
2023-05-03T02:39:32.013Z,87.80
2023-05-03T03:03:09.814Z,88.10
2023-05-03T03:05:53.818Z,88.20
2023-05-03T03:08:49.873Z,88.10
2023-05-03T03:11:17.441Z,88.20
2023-05-03T03:13:54.722Z,88.10
2023-05-03T03:16:58.356Z,88.10
2023-05-03T03:19:59.781Z,88.30
2023-05-03T03:29:51.868Z,88.20
2023-05-03T03:32:25.352Z,88.30
2023-05-03T03:35:02.953Z,88.20
2023-05-03T03:38:04.740Z,88.30
2023-05-03T03:40:37.694Z,88.30
2023-05-03T03:43:25.382Z,88.30
2023-05-03T03:46:07.391Z,88.40
2023-05-03T04:09:02.290Z,88.40
2023-05-03T04:33:27.566Z,88.50
2023-05-03T04:36:08.176Z,88.50
2023-05-03T04:38:40.105Z,88.60
2023-05-03T04:41:12.520Z,88.40
2023-05-03T04:43:41.998Z,88.40
2023-05-03T04:46:15.192Z,89.30
2023-05-03T04:48:51.760Z,88.50
2023-05-03T04:54:46.786Z,88.60
2023-05-03T06:11:17.296Z,88.90
2023-05-03T06:13:45.621Z,88.80
2023-05-03T06:20:00.898Z,89.00
2023-05-03T06:36:17.738Z,89.00
2023-05-03T07:57:29.026Z,89.60
2023-05-03T07:59:57.773Z,89.70
2023-05-03T08:02:25.012Z,89.60
2023-05-03T08:04:52.476Z,89.70
2023-05-03T08:07:19.790Z,89.60
2023-05-03T08:09:48.759Z,89.70
2023-05-03T08:12:18.580Z,89.70
2023-05-03T08:14:48.532Z,89.60
2023-05-03T08:17:15.541Z,89.40
2023-05-03T08:19:42.579Z,89.50
2023-05-03T08:22:12.664Z,89.30
2023-05-03T08:24:39.951Z,89.40
2023-05-03T08:27:08.152Z,89.10
2023-05-03T08:29:37.537Z,89.00
2023-05-03T08:32:04.939Z,89.30
2023-05-03T08:34:32.266Z,89.10
2023-05-03T08:36:59.342Z,89.20
2023-05-03T08:39:27.015Z,89.00
2023-05-03T08:41:56.359Z,88.80
2023-05-03T08:44:27.224Z,88.50
2023-05-03T08:46:54.346Z,88.40
2023-05-03T08:49:21.845Z,88.20
2023-05-03T08:51:49.864Z,88.10
2023-05-03T08:54:18.315Z,88.20
2023-05-03T08:56:46.827Z,88.20
2023-05-03T08:59:19.572Z,88.00
2023-05-03T09:01:49.290Z,87.80
2023-05-03T09:04:17.798Z,87.80
2023-05-03T09:06:52.107Z,87.70
2023-05-03T09:09:31.619Z,87.60
2023-05-03T09:12:00.853Z,87.60
2023-05-03T09:14:27.793Z,87.50
2023-05-03T09:16:54.741Z,87.60
2023-05-03T09:19:21.681Z,87.50
2023-05-03T09:21:48.537Z,87.50
2023-05-03T09:27:27.125Z,87.60
2023-05-03T09:29:58.612Z,87.60
2023-05-03T09:36:05.318Z,88.50
2023-05-03T09:38:42.075Z,87.70
2023-05-03T09:41:09.336Z,87.80
2023-05-03T09:44:06.601Z,87.70
2023-05-03T09:46:37.684Z,88.50
2023-05-03T09:49:04.768Z,87.70
2023-05-03T09:51:34.762Z,87.70
2023-05-03T09:54:20.623Z,87.80
2023-05-03T09:56:49.612Z,87.90
2023-05-03T09:59:47.986Z,87.70
2023-05-03T10:02:46.063Z,87.70
2023-05-03T10:05:19.996Z,87.80
2023-05-03T10:14:46.580Z,87.50
2023-05-03T10:17:15.937Z,87.50
2023-05-03T12:29:14.019Z,86.50
2023-05-03T13:19:13.818Z,86.20
2023-05-03T13:21:48.286Z,86.30
2023-05-03T13:24:18.919Z,86.20
2023-05-03T13:27:03.400Z,86.30
2023-05-03T15:32:40.344Z,85.70
